Current | Forecast
Updated: 9:30 AM +08 on December 11, 2017
Observed at Kota Kinabalu, Malaysia
Temperature 25°C
Humidity 100%
Dew Point 25°C
Wind NNW at 6 km/h
Pressure 1012 hPa (Steady)
Conditions Light Rain
Visibility 6.0 kilometers
UV 4 out of 16
Clouds (FEW) : 396 m
Scattered Clouds (SCT) : 1066 m
Mostly Cloudy (BKN) : 7924 m
Yesterday's Maximum 32°C
Yesterday's Minimum 24°C approx.
Yesterday's Cooling Degree Days 17 approx.
Sunrise6:14 AM +08
Sunset6:04 PM +08
Moon Rise12:35 AM +08
Moon Set1:01 PM +08
Moon PhaseMoon Phase
Last Quarter
Raw METARMETAR WBKK 110130Z 33003KT 6000 -RA FEW013 SCT035 BKN260 25/25 Q1012 NOSIG


Monday
. High: 89° F.
Tuesday
. High: 89° F.
Wednesday
. High: 89° F.
Thursday
. High: 89° F.
Friday
. High: 91° F.
Saturday
. High: 89° F.
Sunday
. High: 89° F.
Monday
. High: 91° F.

Units: English | Metric

Find the Weather for any City, State or Zipcode, or Country:

U.S. State List | Severe Weather | Tropical Storms | Ski Conditions
United States | Canada | Central America | South America | Asia | Europe | Australia | Africa | Islands

Weather Underground

© Copyright 2017
The Weather Company, LLC